sensor_id;sensor_type;location;lat;lon;timestamp;P1;durP1;ratioP1;P2;durP2;ratioP2
33206;SDS011;19565;46.602;11.534;2023-05-10T00:00:16;0.88;;;0.88;;
33206;SDS011;19565;46.602;11.534;2023-05-10T00:02:45;0.57;;;0.57;;
33206;SDS011;19565;46.602;11.534;2023-05-10T00:05:13;0.85;;;0.85;;
33206;SDS011;19565;46.602;11.534;2023-05-10T00:07:41;0.50;;;0.50;;
33206;SDS011;19565;46.602;11.534;2023-05-10T00:10:11;0.63;;;0.63;;
33206;SDS011;19565;46.602;11.534;2023-05-10T00:12:39;1.10;;;0.82;;
33206;SDS011;19565;46.602;11.534;2023-05-10T00:15:09;0.52;;;0.50;;
33206;SDS011;19565;46.602;11.534;2023-05-10T00:17:37;1.40;;;1.08;;
33206;SDS011;19565;46.602;11.534;2023-05-10T00:20:06;0.70;;;0.70;;
33206;SDS011;19565;46.602;11.534;2023-05-10T00:22:35;0.85;;;0.85;;
33206;SDS011;19565;46.602;11.534;2023-05-10T00:25:03;0.30;;;0.30;;
33206;SDS011;19565;46.602;11.534;2023-05-10T00:27:32;1.02;;;0.98;;
33206;SDS011;19565;46.602;11.534;2023-05-10T00:30:00;0.93;;;0.75;;
33206;SDS011;19565;46.602;11.534;2023-05-10T00:32:29;0.47;;;0.47;;
33206;SDS011;19565;46.602;11.534;2023-05-10T00:34:57;0.95;;;0.95;;
33206;SDS011;19565;46.602;11.534;2023-05-10T00:37:26;1.02;;;0.75;;
33206;SDS011;19565;46.602;11.534;2023-05-10T00:39:54;0.85;;;0.85;;
33206;SDS011;19565;46.602;11.534;2023-05-10T00:42:22;0.85;;;0.85;;
33206;SDS011;19565;46.602;11.534;2023-05-10T00:44:50;1.02;;;0.98;;
33206;SDS011;19565;46.602;11.534;2023-05-10T00:47:18;0.28;;;0.28;;
33206;SDS011;19565;46.602;11.534;2023-05-10T00:49:47;0.60;;;0.60;;
33206;SDS011;19565;46.602;11.534;2023-05-10T00:52:15;0.82;;;0.55;;
33206;SDS011;19565;46.602;11.534;2023-05-10T00:54:43;0.60;;;0.60;;
33206;SDS011;19565;46.602;11.534;2023-05-10T00:57:12;0.47;;;0.47;;
33206;SDS011;19565;46.602;11.534;2023-05-10T00:59:40;0.82;;;0.82;;
33206;SDS011;19565;46.602;11.534;2023-05-10T01:02:08;0.77;;;0.60;;
33206;SDS011;19565;46.602;11.534;2023-05-10T01:04:36;0.60;;;0.60;;
33206;SDS011;19565;46.602;11.534;2023-05-10T01:07:07;0.60;;;0.60;;
33206;SDS011;19565;46.602;11.534;2023-05-10T01:09:35;0.57;;;0.57;;
33206;SDS011;19565;46.602;11.534;2023-05-10T01:12:03;0.52;;;0.52;;
33206;SDS011;19565;46.602;11.534;2023-05-10T01:14:33;0.30;;;0.30;;
33206;SDS011;19565;46.602;11.534;2023-05-10T01:17:02;0.82;;;0.82;;
33206;SDS011;19565;46.602;11.534;2023-05-10T01:19:33;1.02;;;1.00;;
33206;SDS011;19565;46.602;11.534;2023-05-10T01:22:06;1.65;;;1.33;;
33206;SDS011;19565;46.602;11.534;2023-05-10T01:24:50;0.30;;;0.30;;
33206;SDS011;19565;46.602;11.534;2023-05-10T01:27:54;1.83;;;0.68;;
33206;SDS011;19565;46.602;11.534;2023-05-10T01:31:07;0.65;;;0.65;;
33206;SDS011;19565;46.602;11.534;2023-05-10T01:33:48;0.55;;;0.55;;
33206;SDS011;19565;46.602;11.534;2023-05-10T01:36:24;2.97;;;0.65;;
33206;SDS011;19565;46.602;11.534;2023-05-10T01:38:59;1.13;;;0.82;;
33206;SDS011;19565;46.602;11.534;2023-05-10T01:41:35;1.38;;;1.20;;
33206;SDS011;19565;46.602;11.534;2023-05-10T01:44:10;0.77;;;0.77;;
33206;SDS011;19565;46.602;11.534;2023-05-10T01:46:46;2.05;;;1.17;;
33206;SDS011;19565;46.602;11.534;2023-05-10T01:49:23;0.68;;;0.68;;
33206;SDS011;19565;46.602;11.534;2023-05-10T01:51:53;1.20;;;1.05;;
33206;SDS011;19565;46.602;11.534;2023-05-10T01:54:25;0.85;;;0.63;;
33206;SDS011;19565;46.602;11.534;2023-05-10T01:56:58;0.40;;;0.40;;
33206;SDS011;19565;46.602;11.534;2023-05-10T01:59:30;0.30;;;0.30;;
33206;SDS011;19565;46.602;11.534;2023-05-10T02:02:02;0.75;;;0.65;;
33206;SDS011;19565;46.602;11.534;2023-05-10T02:04:34;0.50;;;0.50;;
33206;SDS011;19565;46.602;11.534;2023-05-10T02:07:04;0.65;;;0.65;;
33206;SDS011;19565;46.602;11.534;2023-05-10T02:09:33;0.50;;;0.50;;
33206;SDS011;19565;46.602;11.534;2023-05-10T02:12:03;0.70;;;0.70;;
33206;SDS011;19565;46.602;11.534;2023-05-10T02:14:35;2.10;;;1.05;;
33206;SDS011;19565;46.602;11.534;2023-05-10T02:17:04;1.00;;;0.80;;
33206;SDS011;19565;46.602;11.534;2023-05-10T02:19:36;1.70;;;0.77;;
33206;SDS011;19565;46.602;11.534;2023-05-10T02:22:08;0.55;;;0.55;;
33206;SDS011;19565;46.602;11.534;2023-05-10T02:24:37;0.45;;;0.45;;
33206;SDS011;19565;46.602;11.534;2023-05-10T02:27:07;1.20;;;1.10;;
33206;SDS011;19565;46.602;11.534;2023-05-10T02:29:37;1.00;;;0.98;;
33206;SDS011;19565;46.602;11.534;2023-05-10T02:32:06;0.55;;;0.55;;
33206;SDS011;19565;46.602;11.534;2023-05-10T02:34:35;1.52;;;1.42;;
33206;SDS011;19565;46.602;11.534;2023-05-10T02:37:04;0.43;;;0.43;;
33206;SDS011;19565;46.602;11.534;2023-05-10T02:39:33;0.50;;;0.50;;
33206;SDS011;19565;46.602;11.534;2023-05-10T02:42:02;0.47;;;0.47;;
33206;SDS011;19565;46.602;11.534;2023-05-10T02:44:31;0.73;;;0.73;;
33206;SDS011;19565;46.602;11.534;2023-05-10T02:47:01;0.57;;;0.57;;
33206;SDS011;19565;46.602;11.534;2023-05-10T02:49:29;0.50;;;0.50;;
33206;SDS011;19565;46.602;11.534;2023-05-10T02:52:00;0.43;;;0.43;;
33206;SDS011;19565;46.602;11.534;2023-05-10T02:54:31;0.57;;;0.52;;
33206;SDS011;19565;46.602;11.534;2023-05-10T02:57:00;0.30;;;0.30;;
33206;SDS011;19565;46.602;11.534;2023-05-10T02:59:32;0.77;;;0.77;;
33206;SDS011;19565;46.602;11.534;2023-05-10T03:02:00;0.52;;;0.50;;
33206;SDS011;19565;46.602;11.534;2023-05-10T03:04:28;0.77;;;0.77;;
33206;SDS011;19565;46.602;11.534;2023-05-10T03:06:59;0.45;;;0.45;;
33206;SDS011;19565;46.602;11.534;2023-05-10T03:09:27;1.05;;;1.02;;
33206;SDS011;19565;46.602;11.534;2023-05-10T03:11:56;0.73;;;0.70;;
33206;SDS011;19565;46.602;11.534;2023-05-10T03:14:34;0.60;;;0.60;;
33206;SDS011;19565;46.602;11.534;2023-05-10T03:17:15;1.45;;;0.40;;
33206;SDS011;19565;46.602;11.534;2023-05-10T03:19:53;1.40;;;1.02;;
33206;SDS011;19565;46.602;11.534;2023-05-10T03:22:25;2.95;;;1.65;;
33206;SDS011;19565;46.602;11.534;2023-05-10T03:24:58;1.17;;;0.82;;
33206;SDS011;19565;46.602;11.534;2023-05-10T03:27:31;1.70;;;1.27;;
33206;SDS011;19565;46.602;11.534;2023-05-10T03:30:01;1.00;;;0.90;;
33206;SDS011;19565;46.602;11.534;2023-05-10T03:32:30;1.27;;;1.17;;
33206;SDS011;19565;46.602;11.534;2023-05-10T03:35:00;1.35;;;1.23;;
33206;SDS011;19565;46.602;11.534;2023-05-10T03:37:30;1.27;;;1.23;;
33206;SDS011;19565;46.602;11.534;2023-05-10T03:39:58;3.13;;;1.85;;
33206;SDS011;19565;46.602;11.534;2023-05-10T03:42:26;2.60;;;1.52;;
33206;SDS011;19565;46.602;11.534;2023-05-10T03:44:54;2.60;;;2.10;;
33206;SDS011;19565;46.602;11.534;2023-05-10T03:47:22;1.83;;;1.67;;
33206;SDS011;19565;46.602;11.534;2023-05-10T03:49:50;4.53;;;3.78;;
33206;SDS011;19565;46.602;11.534;2023-05-10T03:52:18;2.45;;;2.25;;
33206;SDS011;19565;46.602;11.534;2023-05-10T03:54:48;1.88;;;1.77;;
33206;SDS011;19565;46.602;11.534;2023-05-10T03:57:16;3.60;;;2.40;;
33206;SDS011;19565;46.602;11.534;2023-05-10T03:59:44;2.08;;;1.77;;
33206;SDS011;19565;46.602;11.534;2023-05-10T04:02:12;2.00;;;1.42;;
33206;SDS011;19565;46.602;11.534;2023-05-10T04:04:40;1.98;;;1.67;;
33206;SDS011;19565;46.602;11.534;2023-05-10T04:07:09;3.72;;;2.47;;
33206;SDS011;19565;46.602;11.534;2023-05-10T04:09:37;2.03;;;1.88;;
33206;SDS011;19565;46.602;11.534;2023-05-10T04:12:07;2.53;;;2.00;;
33206;SDS011;19565;46.602;11.534;2023-05-10T04:14:36;1.40;;;1.08;;
33206;SDS011;19565;46.602;11.534;2023-05-10T04:17:04;1.90;;;1.75;;
33206;SDS011;19565;46.602;11.534;2023-05-10T04:19:33;1.08;;;1.05;;
33206;SDS011;19565;46.602;11.534;2023-05-10T04:22:02;2.28;;;1.27;;
33206;SDS011;19565;46.602;11.534;2023-05-10T04:24:30;1.42;;;1.33;;
33206;SDS011;19565;46.602;11.534;2023-05-10T04:26:58;2.42;;;1.30;;
33206;SDS011;19565;46.602;11.534;2023-05-10T04:29:28;3.55;;;1.50;;
33206;SDS011;19565;46.602;11.534;2023-05-10T04:31:55;1.63;;;1.35;;
33206;SDS011;19565;46.602;11.534;2023-05-10T04:34:24;1.98;;;1.58;;
33206;SDS011;19565;46.602;11.534;2023-05-10T04:36:52;2.75;;;1.73;;
33206;SDS011;19565;46.602;11.534;2023-05-10T04:39:20;1.65;;;1.45;;
33206;SDS011;19565;46.602;11.534;2023-05-10T04:41:48;3.22;;;2.92;;
33206;SDS011;19565;46.602;11.534;2023-05-10T04:44:16;2.58;;;1.85;;
33206;SDS011;19565;46.602;11.534;2023-05-10T04:46:45;2.92;;;2.33;;
33206;SDS011;19565;46.602;11.534;2023-05-10T04:49:13;3.40;;;1.85;;
33206;SDS011;19565;46.602;11.534;2023-05-10T04:51:41;2.63;;;2.35;;
33206;SDS011;19565;46.602;11.534;2023-05-10T04:54:09;1.38;;;1.20;;
33206;SDS011;19565;46.602;11.534;2023-05-10T04:56:37;3.40;;;2.30;;
33206;SDS011;19565;46.602;11.534;2023-05-10T04:59:05;4.45;;;2.33;;
33206;SDS011;19565;46.602;11.534;2023-05-10T05:01:33;4.38;;;2.75;;
33206;SDS011;19565;46.602;11.534;2023-05-10T05:04:03;0.88;;;0.88;;
33206;SDS011;19565;46.602;11.534;2023-05-10T05:06:31;3.40;;;2.40;;
33206;SDS011;19565;46.602;11.534;2023-05-10T05:08:59;1.75;;;1.50;;
33206;SDS011;19565;46.602;11.534;2023-05-10T05:11:27;4.20;;;2.83;;
33206;SDS011;19565;46.602;11.534;2023-05-10T05:13:55;3.20;;;1.95;;
33206;SDS011;19565;46.602;11.534;2023-05-10T05:16:25;3.90;;;2.97;;
33206;SDS011;19565;46.602;11.534;2023-05-10T05:18:53;2.28;;;1.77;;
33206;SDS011;19565;46.602;11.534;2023-05-10T05:21:23;3.85;;;2.35;;
33206;SDS011;19565;46.602;11.534;2023-05-10T05:23:53;1.88;;;1.77;;
33206;SDS011;19565;46.602;11.534;2023-05-10T05:26:20;4.95;;;2.88;;
33206;SDS011;19565;46.602;11.534;2023-05-10T05:28:49;2.83;;;2.47;;
33206;SDS011;19565;46.602;11.534;2023-05-10T05:31:20;3.03;;;1.90;;
33206;SDS011;19565;46.602;11.534;2023-05-10T05:33:48;2.03;;;1.67;;
33206;SDS011;19565;46.602;11.534;2023-05-10T05:36:16;2.65;;;2.45;;
33206;SDS011;19565;46.602;11.534;2023-05-10T05:38:45;1.90;;;1.73;;
33206;SDS011;19565;46.602;11.534;2023-05-10T05:41:13;3.08;;;1.70;;
33206;SDS011;19565;46.602;11.534;2023-05-10T05:43:41;3.58;;;2.58;;
33206;SDS011;19565;46.602;11.534;2023-05-10T05:46:10;3.25;;;2.20;;
33206;SDS011;19565;46.602;11.534;2023-05-10T05:48:38;1.42;;;1.33;;
33206;SDS011;19565;46.602;11.534;2023-05-10T05:51:06;3.58;;;2.78;;
33206;SDS011;19565;46.602;11.534;2023-05-10T05:53:34;2.70;;;2.15;;
33206;SDS011;19565;46.602;11.534;2023-05-10T05:56:03;1.75;;;1.65;;
33206;SDS011;19565;46.602;11.534;2023-05-10T05:58:32;2.85;;;2.58;;
33206;SDS011;19565;46.602;11.534;2023-05-10T06:01:00;2.60;;;1.70;;
33206;SDS011;19565;46.602;11.534;2023-05-10T06:03:28;2.15;;;1.67;;
33206;SDS011;19565;46.602;11.534;2023-05-10T06:05:56;2.75;;;1.33;;
33206;SDS011;19565;46.602;11.534;2023-05-10T06:08:24;3.75;;;3.33;;
33206;SDS011;19565;46.602;11.534;2023-05-10T06:10:52;13.60;;;2.55;;
33206;SDS011;19565;46.602;11.534;2023-05-10T06:13:22;1.90;;;1.10;;
33206;SDS011;19565;46.602;11.534;2023-05-10T06:15:50;2.30;;;1.67;;
33206;SDS011;19565;46.602;11.534;2023-05-10T06:18:18;0.82;;;0.80;;
33206;SDS011;19565;46.602;11.534;2023-05-10T06:20:46;2.97;;;1.92;;
33206;SDS011;19565;46.602;11.534;2023-05-10T06:23:14;2.08;;;1.88;;
33206;SDS011;19565;46.602;11.534;2023-05-10T06:25:42;1.73;;;1.55;;
33206;SDS011;19565;46.602;11.534;2023-05-10T06:28:10;2.50;;;2.30;;
33206;SDS011;19565;46.602;11.534;2023-05-10T06:30:39;1.83;;;1.70;;
33206;SDS011;19565;46.602;11.534;2023-05-10T06:33:07;1.85;;;1.63;;
33206;SDS011;19565;46.602;11.534;2023-05-10T06:35:36;2.38;;;1.65;;
33206;SDS011;19565;46.602;11.534;2023-05-10T06:38:04;1.17;;;1.15;;
33206;SDS011;19565;46.602;11.534;2023-05-10T06:40:32;2.03;;;1.83;;
33206;SDS011;19565;46.602;11.534;2023-05-10T06:43:00;1.75;;;1.33;;
33206;SDS011;19565;46.602;11.534;2023-05-10T06:45:28;1.90;;;1.80;;
33206;SDS011;19565;46.602;11.534;2023-05-10T06:47:57;1.15;;;1.15;;
33206;SDS011;19565;46.602;11.534;2023-05-10T06:50:26;2.30;;;1.63;;
33206;SDS011;19565;46.602;11.534;2023-05-10T06:52:54;1.35;;;1.05;;
33206;SDS011;19565;46.602;11.534;2023-05-10T06:55:22;3.30;;;1.73;;
33206;SDS011;19565;46.602;11.534;2023-05-10T06:57:50;3.85;;;2.45;;
33206;SDS011;19565;46.602;11.534;2023-05-10T07:00:19;2.28;;;1.38;;
33206;SDS011;19565;46.602;11.534;2023-05-10T07:02:47;1.48;;;1.35;;
33206;SDS011;19565;46.602;11.534;2023-05-10T07:05:17;2.95;;;1.92;;
33206;SDS011;19565;46.602;11.534;2023-05-10T07:07:46;1.10;;;1.10;;
33206;SDS011;19565;46.602;11.534;2023-05-10T07:10:14;1.95;;;1.60;;
33206;SDS011;19565;46.602;11.534;2023-05-10T07:12:42;1.50;;;1.33;;
33206;SDS011;19565;46.602;11.534;2023-05-10T07:15:10;2.58;;;1.95;;
33206;SDS011;19565;46.602;11.534;2023-05-10T07:17:39;3.50;;;1.70;;
33206;SDS011;19565;46.602;11.534;2023-05-10T07:20:10;0.75;;;0.70;;
33206;SDS011;19565;46.602;11.534;2023-05-10T07:22:40;2.25;;;1.95;;
33206;SDS011;19565;46.602;11.534;2023-05-10T07:25:08;2.17;;;1.73;;
33206;SDS011;19565;46.602;11.534;2023-05-10T07:27:36;2.50;;;2.03;;
33206;SDS011;19565;46.602;11.534;2023-05-10T07:30:05;1.52;;;1.17;;
33206;SDS011;19565;46.602;11.534;2023-05-10T07:32:34;1.65;;;1.55;;
33206;SDS011;19565;46.602;11.534;2023-05-10T07:35:02;1.85;;;1.05;;
33206;SDS011;19565;46.602;11.534;2023-05-10T07:37:31;1.50;;;1.38;;
33206;SDS011;19565;46.602;11.534;2023-05-10T07:40:01;2.33;;;2.10;;
33206;SDS011;19565;46.602;11.534;2023-05-10T07:42:29;1.65;;;1.08;;
33206;SDS011;19565;46.602;11.534;2023-05-10T07:44:57;1.17;;;0.90;;
33206;SDS011;19565;46.602;11.534;2023-05-10T07:47:25;1.95;;;1.35;;
33206;SDS011;19565;46.602;11.534;2023-05-10T07:49:53;1.05;;;1.05;;
33206;SDS011;19565;46.602;11.534;2023-05-10T07:52:21;2.13;;;1.67;;
33206;SDS011;19565;46.602;11.534;2023-05-10T07:54:51;1.80;;;1.65;;
33206;SDS011;19565;46.602;11.534;2023-05-10T07:57:21;3.88;;;1.83;;
33206;SDS011;19565;46.602;11.534;2023-05-10T07:59:49;1.48;;;1.38;;
33206;SDS011;19565;46.602;11.534;2023-05-10T08:02:17;0.82;;;0.82;;
33206;SDS011;19565;46.602;11.534;2023-05-10T08:04:45;2.63;;;1.80;;
33206;SDS011;19565;46.602;11.534;2023-05-10T08:07:12;1.73;;;1.60;;
33206;SDS011;19565;46.602;11.534;2023-05-10T08:09:40;1.35;;;1.15;;
33206;SDS011;19565;46.602;11.534;2023-05-10T08:12:08;0.70;;;0.70;;
33206;SDS011;19565;46.602;11.534;2023-05-10T08:14:38;1.30;;;1.20;;
33206;SDS011;19565;46.602;11.534;2023-05-10T08:17:06;0.87;;;0.87;;
33206;SDS011;19565;46.602;11.534;2023-05-10T08:19:34;0.93;;;0.87;;
33206;SDS011;19565;46.602;11.534;2023-05-10T08:22:02;2.43;;;1.73;;
33206;SDS011;19565;46.602;11.534;2023-05-10T08:24:30;1.10;;;1.00;;
33206;SDS011;19565;46.602;11.534;2023-05-10T08:26:58;1.23;;;0.90;;
33206;SDS011;19565;46.602;11.534;2023-05-10T08:29:26;1.27;;;0.83;;
33206;SDS011;19565;46.602;11.534;2023-05-10T08:32:02;0.70;;;0.70;;
33206;SDS011;19565;46.602;11.534;2023-05-10T08:34:30;22.73;;;1.20;;
33206;SDS011;19565;46.602;11.534;2023-05-10T08:36:58;1.10;;;1.07;;
33206;SDS011;19565;46.602;11.534;2023-05-10T08:39:26;1.97;;;1.17;;
33206;SDS011;19565;46.602;11.534;2023-05-10T08:41:58;2.70;;;2.50;;
33206;SDS011;19565;46.602;11.534;2023-05-10T08:44:31;0.50;;;0.50;;
33206;SDS011;19565;46.602;11.534;2023-05-10T08:47:04;1.23;;;1.13;;
33206;SDS011;19565;46.602;11.534;2023-05-10T08:49:33;0.60;;;0.60;;
33206;SDS011;19565;46.602;11.534;2023-05-10T08:52:03;0.70;;;0.70;;
33206;SDS011;19565;46.602;11.534;2023-05-10T08:54:32;2.33;;;1.67;;
33206;SDS011;19565;46.602;11.534;2023-05-10T08:57:00;1.67;;;1.53;;
33206;SDS011;19565;46.602;11.534;2023-05-10T08:59:29;1.27;;;1.20;;
33206;SDS011;19565;46.602;11.534;2023-05-10T09:01:58;3.73;;;0.93;;
33206;SDS011;19565;46.602;11.534;2023-05-10T09:04:27;1.07;;;0.97;;
33206;SDS011;19565;46.602;11.534;2023-05-10T09:06:56;0.30;;;0.30;;
33206;SDS011;19565;46.602;11.534;2023-05-10T09:09:24;1.17;;;1.07;;
33206;SDS011;19565;46.602;11.534;2023-05-10T09:11:53;0.37;;;0.37;;
33206;SDS011;19565;46.602;11.534;2023-05-10T09:14:22;0.30;;;0.30;;
33206;SDS011;19565;46.602;11.534;2023-05-10T09:16:51;1.60;;;0.93;;
33206;SDS011;19565;46.602;11.534;2023-05-10T09:19:21;0.60;;;0.60;;
33206;SDS011;19565;46.602;11.534;2023-05-10T09:21:50;0.60;;;0.60;;
33206;SDS011;19565;46.602;11.534;2023-05-10T09:24:18;1.20;;;1.10;;
33206;SDS011;19565;46.602;11.534;2023-05-10T09:26:47;0.87;;;0.87;;
33206;SDS011;19565;46.602;11.534;2023-05-10T09:29:15;1.40;;;1.10;;
33206;SDS011;19565;46.602;11.534;2023-05-10T09:31:44;0.30;;;0.30;;
33206;SDS011;19565;46.602;11.534;2023-05-10T09:34:17;0.60;;;0.60;;
33206;SDS011;19565;46.602;11.534;2023-05-10T09:36:51;0.68;;;0.50;;
33206;SDS011;19565;46.602;11.534;2023-05-10T09:39:20;1.30;;;1.17;;
33206;SDS011;19565;46.602;11.534;2023-05-10T09:41:57;0.60;;;0.43;;
33206;SDS011;19565;46.602;11.534;2023-05-10T09:44:27;1.67;;;0.70;;
33206;SDS011;19565;46.602;11.534;2023-05-10T09:46:55;1.02;;;1.02;;
33206;SDS011;19565;46.602;11.534;2023-05-10T09:49:23;1.00;;;1.00;;
33206;SDS011;19565;46.602;11.534;2023-05-10T09:52:00;1.00;;;1.00;;
33206;SDS011;19565;46.602;11.534;2023-05-10T09:54:30;1.60;;;1.10;;
33206;SDS011;19565;46.602;11.534;2023-05-10T09:56:58;0.65;;;0.65;;
33206;SDS011;19565;46.602;11.534;2023-05-10T09:59:27;1.30;;;1.02;;
33206;SDS011;19565;46.602;11.534;2023-05-10T10:01:55;0.77;;;0.77;;
33206;SDS011;19565;46.602;11.534;2023-05-10T10:04:25;1.55;;;0.57;;
33206;SDS011;19565;46.602;11.534;2023-05-10T10:07:01;0.52;;;0.52;;
33206;SDS011;19565;46.602;11.534;2023-05-10T10:09:30;0.60;;;0.60;;
33206;SDS011;19565;46.602;11.534;2023-05-10T10:11:58;0.30;;;0.30;;
33206;SDS011;19565;46.602;11.534;2023-05-10T10:14:27;0.57;;;0.57;;
33206;SDS011;19565;46.602;11.534;2023-05-10T10:16:56;0.50;;;0.50;;
33206;SDS011;19565;46.602;11.534;2023-05-10T10:19:34;0.43;;;0.43;;
33206;SDS011;19565;46.602;11.534;2023-05-10T10:22:05;0.40;;;0.40;;
33206;SDS011;19565;46.602;11.534;2023-05-10T10:24:33;0.50;;;0.50;;
33206;SDS011;19565;46.602;11.534;2023-05-10T10:27:03;0.73;;;0.70;;
33206;SDS011;19565;46.602;11.534;2023-05-10T10:29:36;0.50;;;0.50;;
33206;SDS011;19565;46.602;11.534;2023-05-10T10:32:17;0.40;;;0.40;;
33206;SDS011;19565;46.602;11.534;2023-05-10T10:34:52;0.30;;;0.30;;
33206;SDS011;19565;46.602;11.534;2023-05-10T10:37:23;0.40;;;0.40;;
33206;SDS011;19565;46.602;11.534;2023-05-10T10:40:24;0.50;;;0.50;;
33206;SDS011;19565;46.602;11.534;2023-05-10T10:43:21;0.50;;;0.50;;
33206;SDS011;19565;46.602;11.534;2023-05-10T10:46:10;0.47;;;0.47;;
33206;SDS011;19565;46.602;11.534;2023-05-10T10:48:40;0.70;;;0.70;;
33206;SDS011;19565;46.602;11.534;2023-05-10T10:51:09;0.80;;;0.80;;
33206;SDS011;19565;46.602;11.534;2023-05-10T10:53:39;0.50;;;0.50;;
33206;SDS011;19565;46.602;11.534;2023-05-10T10:56:09;0.90;;;0.90;;
33206;SDS011;19565;46.602;11.534;2023-05-10T10:58:39;1.20;;;1.20;;
33206;SDS011;19565;46.602;11.534;2023-05-10T11:01:12;0.60;;;0.60;;
33206;SDS011;19565;46.602;11.534;2023-05-10T11:03:54;2.83;;;1.83;;
33206;SDS011;19565;46.602;11.534;2023-05-10T11:06:37;1.98;;;1.88;;
33206;SDS011;19565;46.602;11.534;2023-05-10T11:09:08;0.80;;;0.80;;
33206;SDS011;19565;46.602;11.534;2023-05-10T11:11:48;1.05;;;1.05;;
33206;SDS011;19565;46.602;11.534;2023-05-10T11:14:19;0.40;;;0.40;;
33206;SDS011;19565;46.602;11.534;2023-05-10T11:16:48;1.23;;;1.17;;
33206;SDS011;19565;46.602;11.534;2023-05-10T11:19:17;1.95;;;1.85;;
33206;SDS011;19565;46.602;11.534;2023-05-10T11:21:46;1.30;;;1.20;;
33206;SDS011;19565;46.602;11.534;2023-05-10T11:24:17;6.25;;;1.40;;
33206;SDS011;19565;46.602;11.534;2023-05-10T11:26:48;0.80;;;0.80;;
33206;SDS011;19565;46.602;11.534;2023-05-10T11:29:17;1.13;;;1.02;;
33206;SDS011;19565;46.602;11.534;2023-05-10T11:31:46;0.90;;;0.90;;
33206;SDS011;19565;46.602;11.534;2023-05-10T11:34:24;0.80;;;0.80;;
33206;SDS011;19565;46.602;11.534;2023-05-10T11:36:53;1.05;;;1.05;;
33206;SDS011;19565;46.602;11.534;2023-05-10T11:39:26;1.10;;;1.10;;
33206;SDS011;19565;46.602;11.534;2023-05-10T11:41:55;0.88;;;0.88;;
33206;SDS011;19565;46.602;11.534;2023-05-10T11:44:24;0.80;;;0.80;;
33206;SDS011;19565;46.602;11.534;2023-05-10T11:46:58;1.05;;;1.05;;
33206;SDS011;19565;46.602;11.534;2023-05-10T11:49:26;1.00;;;1.00;;
33206;SDS011;19565;46.602;11.534;2023-05-10T11:52:03;1.85;;;1.42;;
33206;SDS011;19565;46.602;11.534;2023-05-10T11:54:33;1.00;;;1.00;;
33206;SDS011;19565;46.602;11.534;2023-05-10T11:57:02;1.00;;;1.00;;
33206;SDS011;19565;46.602;11.534;2023-05-10T11:59:30;1.27;;;1.27;;
33206;SDS011;19565;46.602;11.534;2023-05-10T12:01:58;0.60;;;0.60;;
33206;SDS011;19565;46.602;11.534;2023-05-10T12:04:27;0.40;;;0.40;;
33206;SDS011;19565;46.602;11.534;2023-05-10T12:06:56;0.40;;;0.40;;
33206;SDS011;19565;46.602;11.534;2023-05-10T12:09:24;1.25;;;0.63;;
33206;SDS011;19565;46.602;11.534;2023-05-10T12:11:56;0.30;;;0.30;;
33206;SDS011;19565;46.602;11.534;2023-05-10T12:14:24;0.95;;;0.95;;
33206;SDS011;19565;46.602;11.534;2023-05-10T12:16:52;1.00;;;0.80;;
33206;SDS011;19565;46.602;11.534;2023-05-10T12:19:20;0.52;;;0.52;;
33206;SDS011;19565;46.602;11.534;2023-05-10T12:21:48;0.35;;;0.35;;
33206;SDS011;19565;46.602;11.534;2023-05-10T12:24:16;0.50;;;0.50;;
33206;SDS011;19565;46.602;11.534;2023-05-10T12:26:45;1.00;;;0.80;;
33206;SDS011;19565;46.602;11.534;2023-05-10T12:29:17;0.30;;;0.30;;
33206;SDS011;19565;46.602;11.534;2023-05-10T12:31:50;1.23;;;1.17;;
33206;SDS011;19565;46.602;11.534;2023-05-10T12:34:23;0.40;;;0.40;;
33206;SDS011;19565;46.602;11.534;2023-05-10T12:36:52;0.93;;;0.63;;
33206;SDS011;19565;46.602;11.534;2023-05-10T12:39:20;0.43;;;0.38;;
33206;SDS011;19565;46.602;11.534;2023-05-10T12:41:48;0.22;;;0.22;;
33206;SDS011;19565;46.602;11.534;2023-05-10T12:44:19;0.30;;;0.30;;
33206;SDS011;19565;46.602;11.534;2023-05-10T12:46:48;0.30;;;0.30;;
33206;SDS011;19565;46.602;11.534;2023-05-10T12:49:16;0.38;;;0.38;;
33206;SDS011;19565;46.602;11.534;2023-05-10T12:51:45;0.30;;;0.30;;
33206;SDS011;19565;46.602;11.534;2023-05-10T12:54:13;0.60;;;0.60;;
33206;SDS011;19565;46.602;11.534;2023-05-10T12:56:41;0.45;;;0.45;;
33206;SDS011;19565;46.602;11.534;2023-05-10T12:59:10;0.73;;;0.73;;
33206;SDS011;19565;46.602;11.534;2023-05-10T13:01:39;1.17;;;1.10;;
33206;SDS011;19565;46.602;11.534;2023-05-10T13:04:07;0.60;;;0.60;;
33206;SDS011;19565;46.602;11.534;2023-05-10T13:06:36;0.60;;;0.57;;
33206;SDS011;19565;46.602;11.534;2023-05-10T13:09:03;0.65;;;0.40;;
33206;SDS011;19565;46.602;11.534;2023-05-10T13:11:31;0.32;;;0.32;;
33206;SDS011;19565;46.602;11.534;2023-05-10T13:14:00;0.50;;;0.50;;
33206;SDS011;19565;46.602;11.534;2023-05-10T13:16:29;0.40;;;0.40;;
33206;SDS011;19565;46.602;11.534;2023-05-10T13:18:58;3.30;;;0.75;;
33206;SDS011;19565;46.602;11.534;2023-05-10T13:21:27;0.50;;;0.50;;
33206;SDS011;19565;46.602;11.534;2023-05-10T13:23:55;2.22;;;1.10;;
33206;SDS011;19565;46.602;11.534;2023-05-10T13:26:23;0.60;;;0.52;;
33206;SDS011;19565;46.602;11.534;2023-05-10T13:28:51;6.03;;;0.85;;
33206;SDS011;19565;46.602;11.534;2023-05-10T13:31:21;1.75;;;1.15;;
33206;SDS011;19565;46.602;11.534;2023-05-10T13:33:49;0.55;;;0.40;;
33206;SDS011;19565;46.602;11.534;2023-05-10T13:36:19;1.02;;;0.90;;
33206;SDS011;19565;46.602;11.534;2023-05-10T13:38:47;0.60;;;0.60;;
33206;SDS011;19565;46.602;11.534;2023-05-10T13:41:15;2.40;;;0.95;;
33206;SDS011;19565;46.602;11.534;2023-05-10T13:43:43;0.52;;;0.52;;
33206;SDS011;19565;46.602;11.534;2023-05-10T13:46:11;4.47;;;0.60;;
33206;SDS011;19565;46.602;11.534;2023-05-10T13:48:39;1.02;;;0.98;;
33206;SDS011;19565;46.602;11.534;2023-05-10T13:51:07;0.65;;;0.65;;
33206;SDS011;19565;46.602;11.534;2023-05-10T13:53:37;0.40;;;0.40;;
33206;SDS011;19565;46.602;11.534;2023-05-10T13:56:05;0.50;;;0.50;;
33206;SDS011;19565;46.602;11.534;2023-05-10T13:58:33;0.50;;;0.50;;
33206;SDS011;19565;46.602;11.534;2023-05-10T14:01:02;0.70;;;0.70;;
33206;SDS011;19565;46.602;11.534;2023-05-10T14:03:31;0.70;;;0.70;;
33206;SDS011;19565;46.602;11.534;2023-05-10T14:05:59;0.50;;;0.50;;
33206;SDS011;19565;46.602;11.534;2023-05-10T14:08:27;0.70;;;0.70;;
33206;SDS011;19565;46.602;11.534;2023-05-10T14:10:56;0.88;;;0.88;;
33206;SDS011;19565;46.602;11.534;2023-05-10T14:13:24;1.95;;;1.05;;
33206;SDS011;19565;46.602;11.534;2023-05-10T14:15:53;0.40;;;0.40;;
33206;SDS011;19565;46.602;11.534;2023-05-10T14:18:21;0.65;;;0.65;;
33206;SDS011;19565;46.602;11.534;2023-05-10T14:20:49;0.63;;;0.63;;
33206;SDS011;19565;46.602;11.534;2023-05-10T14:23:17;0.73;;;0.55;;
33206;SDS011;19565;46.602;11.534;2023-05-10T14:25:50;0.60;;;0.57;;
33206;SDS011;19565;46.602;11.534;2023-05-10T14:28:19;0.30;;;0.30;;
33206;SDS011;19565;46.602;11.534;2023-05-10T14:30:49;0.65;;;0.47;;
33206;SDS011;19565;46.602;11.534;2023-05-10T14:33:17;0.52;;;0.52;;
33206;SDS011;19565;46.602;11.534;2023-05-10T14:35:45;0.70;;;0.70;;
33206;SDS011;19565;46.602;11.534;2023-05-10T14:38:13;0.52;;;0.52;;
33206;SDS011;19565;46.602;11.534;2023-05-10T14:40:42;0.40;;;0.40;;
33206;SDS011;19565;46.602;11.534;2023-05-10T14:43:10;0.52;;;0.52;;
33206;SDS011;19565;46.602;11.534;2023-05-10T14:45:39;1.05;;;0.80;;
33206;SDS011;19565;46.602;11.534;2023-05-10T14:48:07;0.30;;;0.30;;